createdAt,value
2022-10-11T00:03:18.964Z,28.38
2022-10-11T00:07:41.583Z,27.92
2022-10-11T00:12:04.335Z,22.08
2022-10-11T00:16:26.564Z,25.30
2022-10-11T00:20:49.244Z,27.23
2022-10-11T00:25:13.103Z,28.10
2022-10-11T00:29:37.949Z,24.95
2022-10-11T00:34:00.363Z,28.10
2022-10-11T00:38:22.843Z,22.92
2022-10-11T00:42:46.604Z,22.17
2022-10-11T00:47:17.924Z,18.20
2022-10-11T00:52:03.505Z,22.05
2022-10-11T00:56:31.866Z,23.50
2022-10-11T01:00:54.694Z,26.50
2022-10-11T01:05:29.524Z,22.08
2022-10-11T01:09:52.663Z,20.48
2022-10-11T01:14:44.004Z,23.10
2022-10-11T01:19:56.042Z,17.50
2022-10-11T01:25:21.382Z,21.95
2022-10-11T01:30:22.564Z,19.02
2022-10-11T01:35:08.024Z,17.30
2022-10-11T01:39:34.643Z,16.77
2022-10-11T01:44:01.504Z,18.35
2022-10-11T01:48:24.184Z,23.23
2022-10-11T01:52:46.624Z,21.73
2022-10-11T01:57:59.143Z,21.60
2022-10-11T02:02:48.422Z,21.48
2022-10-11T02:07:23.949Z,21.17
2022-10-11T02:11:46.466Z,21.70
2022-10-11T02:16:14.443Z,26.55
2022-10-11T02:20:40.666Z,25.10
2022-10-11T02:25:07.964Z,21.55
2022-10-11T02:29:34.703Z,23.08
2022-10-11T02:34:11.744Z,20.88
2022-10-11T02:38:45.364Z,25.30
2022-10-11T02:43:31.056Z,21.98
2022-10-11T02:47:54.304Z,22.52
2022-10-11T02:52:16.823Z,25.27
2022-10-11T02:56:39.223Z,17.50
2022-10-11T03:01:01.867Z,22.33
2022-10-11T03:05:24.143Z,24.00
2022-10-11T03:09:46.864Z,20.77
2022-10-11T03:14:09.478Z,20.38
2022-10-11T03:18:32.249Z,24.95
2022-10-11T03:22:54.725Z,21.67
2022-10-11T03:27:17.404Z,18.67
2022-10-11T03:31:39.689Z,18.75
2022-10-11T03:36:02.442Z,19.35
2022-10-11T03:40:24.904Z,18.10
2022-10-11T03:44:49.784Z,17.58
2022-10-11T03:49:11.964Z,15.23
2022-10-11T03:53:34.043Z,18.55
2022-10-11T03:57:56.437Z,13.23
2022-10-11T04:02:19.124Z,15.32
2022-10-11T04:06:41.644Z,18.42
2022-10-11T04:11:03.963Z,14.07
2022-10-11T04:15:26.483Z,17.60
2022-10-11T04:19:49.024Z,14.18
2022-10-11T04:24:14.139Z,14.65
2022-10-11T04:28:36.807Z,11.75
2022-10-11T04:32:58.965Z,13.75
2022-10-11T04:37:21.304Z,16.02
2022-10-11T04:41:43.646Z,14.88
2022-10-11T04:46:07.360Z,14.23
2022-10-11T04:50:30.485Z,13.77
2022-10-11T04:54:53.242Z,13.50
2022-10-11T04:59:15.544Z,20.10
2022-10-11T05:03:38.532Z,18.05
2022-10-11T05:08:01.086Z,14.98
2022-10-11T05:12:23.604Z,12.60
2022-10-11T05:16:45.884Z,20.13
2022-10-11T05:21:26.243Z,31.08
2022-10-11T05:25:48.415Z,46.17
2022-10-11T05:30:11.304Z,78.47
2022-10-11T05:34:33.723Z,76.97
2022-10-11T05:38:56.243Z,73.03
2022-10-11T05:43:19.342Z,28.33
2022-10-11T05:47:41.704Z,77.32
2022-10-11T05:52:09.523Z,26.77
2022-10-11T05:56:31.664Z,26.80
2022-10-11T06:00:54.990Z,19.67
2022-10-11T06:05:17.783Z,22.10
2022-10-11T06:09:40.316Z,33.67
2022-10-11T06:14:02.785Z,26.13
2022-10-11T06:18:25.023Z,14.20
2022-10-11T06:22:47.603Z,16.17
2022-10-11T06:27:10.343Z,14.77
2022-10-11T06:31:33.264Z,13.23
2022-10-11T06:36:07.903Z,16.80
2022-10-11T06:40:30.646Z,13.43
2022-10-11T06:44:53.424Z,18.10
2022-10-11T06:49:20.687Z,21.92
2022-10-11T06:53:57.065Z,15.10
2022-10-11T06:58:19.761Z,13.85
2022-10-11T07:02:42.363Z,10.10
2022-10-11T07:07:04.604Z,12.20
2022-10-11T07:11:29.237Z,14.70
2022-10-11T07:15:51.513Z,11.73
2022-10-11T07:20:14.083Z,12.27
2022-10-11T07:24:36.418Z,15.35
2022-10-11T07:28:58.943Z,12.40
2022-10-11T07:33:21.436Z,15.27
2022-10-11T07:37:44.044Z,12.50
2022-10-11T07:42:07.204Z,12.95
2022-10-11T07:46:29.763Z,17.25
2022-10-11T07:50:51.797Z,19.08
2022-10-11T07:55:14.343Z,15.30
2022-10-11T07:59:36.844Z,11.98
2022-10-11T08:04:00.221Z,13.43
2022-10-11T08:08:22.704Z,11.77
2022-10-11T08:12:48.544Z,16.00
2022-10-11T08:17:10.804Z,15.70
2022-10-11T08:21:33.502Z,16.45
2022-10-11T08:25:58.743Z,10.20
2022-10-11T08:30:21.170Z,9.07
2022-10-11T08:34:43.634Z,12.02
2022-10-11T08:39:07.484Z,12.57
2022-10-11T08:44:08.543Z,11.93
2022-10-11T08:48:48.388Z,13.20
2022-10-11T08:53:57.102Z,15.93
2022-10-11T08:58:24.843Z,12.63
2022-10-11T09:03:15.318Z,16.15
2022-10-11T09:08:19.589Z,11.25
2022-10-11T09:13:31.559Z,14.15
2022-10-11T09:18:19.758Z,15.88
2022-10-11T09:23:16.283Z,18.38
2022-10-11T09:28:03.599Z,13.13
2022-10-11T09:32:36.975Z,13.88
2022-10-11T09:37:07.643Z,11.43
2022-10-11T09:41:49.805Z,14.63
2022-10-11T09:46:38.263Z,16.73
2022-10-11T09:51:08.360Z,11.25
2022-10-11T09:56:02.281Z,11.23
2022-10-11T10:00:28.945Z,11.98
2022-10-11T10:05:14.674Z,14.25
2022-10-11T10:09:37.351Z,12.00
2022-10-11T10:14:00.027Z,12.77
2022-10-11T10:18:37.604Z,10.80
2022-10-11T10:23:39.142Z,15.02
2022-10-11T10:28:16.521Z,15.38
2022-10-11T10:32:55.311Z,12.90
2022-10-11T10:37:33.967Z,13.50
2022-10-11T10:41:57.073Z,10.43
2022-10-11T10:46:28.342Z,9.82
2022-10-11T10:50:59.103Z,15.35
2022-10-11T10:55:29.822Z,15.35
2022-10-11T11:00:15.976Z,15.38
2022-10-11T11:04:38.975Z,11.98
2022-10-11T11:09:14.515Z,10.40
2022-10-11T11:13:50.223Z,10.05
2022-10-11T11:18:27.383Z,7.82
2022-10-11T11:23:07.282Z,11.40
2022-10-11T11:28:11.974Z,10.85
2022-10-11T11:32:48.303Z,13.63
2022-10-11T11:37:10.404Z,11.88
2022-10-11T11:42:04.279Z,10.98
2022-10-11T11:46:44.144Z,11.95
2022-10-11T11:51:18.983Z,11.05
2022-10-11T11:55:54.964Z,11.38
2022-10-11T12:00:24.084Z,11.15
2022-10-11T12:04:48.806Z,7.35
2022-10-11T12:09:17.674Z,8.25
2022-10-11T12:13:42.704Z,7.97
2022-10-11T12:18:17.170Z,9.88
2022-10-11T12:23:03.667Z,11.68
2022-10-11T12:27:47.335Z,13.80
2022-10-11T12:32:11.523Z,11.15
2022-10-11T12:36:48.803Z,12.93
2022-10-11T12:41:11.183Z,12.07
2022-10-11T12:45:34.749Z,10.38
2022-10-11T12:50:46.166Z,13.48
2022-10-11T12:55:26.935Z,11.10
2022-10-11T12:59:50.564Z,13.50
2022-10-11T13:04:13.865Z,12.27
2022-10-11T13:08:41.018Z,14.52
2022-10-11T13:13:09.378Z,16.38
2022-10-11T13:17:38.404Z,11.70
2022-10-11T13:22:07.379Z,13.40
2022-10-11T13:26:32.078Z,9.95
2022-10-11T13:30:57.003Z,14.05
2022-10-11T13:35:37.784Z,8.27
2022-10-11T13:40:00.143Z,11.52
2022-10-11T13:44:22.844Z,11.63
2022-10-11T13:48:45.903Z,9.57
2022-10-11T13:53:11.655Z,13.85
2022-10-11T13:57:45.137Z,9.40
2022-10-11T14:02:22.903Z,13.98
2022-10-11T14:07:01.392Z,13.75
2022-10-11T14:11:37.884Z,11.82
2022-10-11T14:16:09.628Z,13.77
2022-10-11T14:20:42.266Z,12.50
2022-10-11T14:25:05.484Z,10.82
2022-10-11T14:29:35.003Z,12.68
2022-10-11T14:33:58.143Z,13.02
2022-10-11T14:38:20.504Z,12.90
2022-10-11T14:42:43.303Z,12.13
2022-10-11T14:47:07.023Z,11.45
2022-10-11T14:51:35.096Z,11.82
2022-10-11T14:55:57.856Z,14.00
2022-10-11T15:00:26.031Z,9.32
2022-10-11T15:04:48.125Z,8.68
2022-10-11T15:09:10.905Z,13.48
2022-10-11T15:13:33.223Z,10.50
2022-10-11T15:17:58.804Z,11.70
2022-10-11T15:22:23.743Z,13.88
2022-10-11T15:26:48.146Z,16.65
2022-10-11T15:31:14.717Z,9.68
2022-10-11T15:35:37.223Z,9.07
2022-10-11T15:39:59.982Z,15.98
2022-10-11T15:44:25.563Z,9.50
2022-10-11T15:48:49.064Z,14.43
2022-10-11T15:53:16.444Z,16.25
2022-10-11T15:57:38.597Z,8.88
2022-10-11T16:02:00.961Z,12.57
2022-10-11T16:06:24.204Z,12.85
2022-10-11T16:10:46.740Z,13.15
2022-10-11T16:15:09.723Z,10.25
2022-10-11T16:19:34.818Z,13.18
2022-10-11T16:23:57.226Z,31.98
2022-10-11T16:28:19.669Z,15.68
2022-10-11T16:32:42.923Z,17.42
2022-10-11T16:37:05.425Z,11.82
2022-10-11T16:41:28.163Z,9.65
2022-10-11T16:45:57.915Z,7.97
2022-10-11T16:50:20.233Z,17.25
2022-10-11T17:23:11.443Z,15.15
2022-10-11T17:27:34.077Z,12.77
2022-10-11T17:31:56.837Z,18.50
2022-10-11T17:36:30.806Z,18.20
2022-10-11T17:41:05.938Z,15.60
2022-10-11T17:45:28.482Z,16.25
2022-10-11T17:49:50.964Z,17.80
2022-10-11T17:54:13.367Z,16.52
2022-10-11T17:58:35.997Z,19.58
2022-10-11T18:02:58.523Z,17.95
2022-10-11T18:07:21.055Z,18.30
2022-10-11T18:11:43.816Z,23.17
2022-10-11T18:16:06.480Z,21.60
2022-10-11T18:20:28.973Z,17.35
2022-10-11T18:24:51.425Z,18.05
2022-10-11T18:29:14.303Z,17.73
2022-10-11T18:33:38.292Z,19.13
2022-10-11T18:38:04.283Z,18.17
2022-10-11T18:42:26.782Z,19.05
2022-10-11T18:46:50.655Z,18.15
2022-10-11T18:51:18.762Z,17.10
2022-10-11T18:55:41.185Z,17.67
2022-10-11T19:00:11.991Z,23.05
2022-10-11T19:04:46.105Z,18.08
2022-10-11T19:09:18.147Z,25.77
2022-10-11T19:13:40.884Z,20.55
2022-10-11T19:18:03.403Z,23.85
2022-10-11T19:22:25.864Z,21.80
2022-10-11T19:26:49.762Z,26.08
2022-10-11T19:31:17.363Z,23.70
2022-10-11T19:35:42.484Z,18.77
2022-10-11T19:40:05.962Z,32.72
2022-10-11T19:44:28.464Z,27.63
2022-10-11T19:48:51.583Z,24.48
2022-10-11T19:53:14.006Z,21.05
2022-10-11T19:57:36.455Z,18.10
2022-10-11T20:01:58.675Z,16.35
2022-10-11T20:06:25.335Z,21.67
2022-10-11T20:10:48.110Z,23.88
2022-10-11T20:15:11.271Z,23.70
2022-10-11T20:19:36.688Z,24.15
2022-10-11T20:24:03.203Z,22.27
2022-10-11T20:28:27.567Z,17.75
2022-10-11T20:32:50.367Z,23.95
2022-10-11T20:37:12.664Z,22.10
2022-10-11T20:41:40.087Z,13.23
2022-10-11T20:46:09.740Z,20.00
2022-10-11T20:50:32.095Z,22.48
2022-10-11T20:54:54.483Z,21.10
2022-10-11T20:59:16.923Z,25.67
2022-10-11T21:03:39.943Z,22.63
2022-10-11T21:08:02.720Z,21.13
2022-10-11T21:12:24.883Z,24.23
2022-10-11T21:16:48.223Z,22.25
2022-10-11T21:21:15.102Z,25.15
2022-10-11T21:25:38.135Z,32.10
2022-10-11T21:30:00.482Z,17.63
2022-10-11T21:34:23.042Z,24.88
2022-10-11T21:38:46.045Z,23.98
2022-10-11T21:43:08.503Z,28.88
2022-10-11T21:47:31.479Z,29.27
2022-10-11T21:51:54.103Z,24.85
2022-10-11T21:56:16.642Z,22.77
2022-10-11T22:00:39.203Z,21.60
2022-10-11T22:05:01.631Z,24.33
2022-10-11T22:09:28.802Z,17.38
2022-10-11T22:13:51.143Z,18.13
2022-10-11T22:18:13.263Z,18.65
2022-10-11T22:22:35.881Z,19.30
2022-10-11T22:26:58.623Z,27.17
2022-10-11T22:31:22.642Z,28.35
2022-10-11T22:35:44.882Z,30.02
2022-10-11T22:40:08.004Z,28.55
2022-10-11T22:44:30.542Z,28.15
2022-10-11T22:48:52.982Z,26.58
2022-10-11T22:53:16.024Z,27.73
2022-10-11T22:57:38.832Z,24.70
2022-10-11T23:02:01.322Z,28.23
2022-10-11T23:06:23.546Z,29.00
2022-10-11T23:10:46.249Z,28.10
2022-10-11T23:15:09.282Z,27.33
2022-10-11T23:19:31.703Z,23.52
2022-10-11T23:23:55.003Z,26.33
2022-10-11T23:28:17.390Z,28.55
2022-10-11T23:32:40.003Z,25.23
2022-10-11T23:37:03.703Z,30.58
2022-10-11T23:41:29.104Z,29.02
2022-10-11T23:45:51.782Z,26.75
2022-10-11T23:50:13.983Z,24.63
2022-10-11T23:54:36.260Z,25.20
2022-10-11T23:58:59.164Z,30.10
